createdAt,value
2018-08-17T00:00:49.269Z,15.30
2018-08-17T00:02:51.440Z,16.03
2018-08-17T00:04:53.641Z,17.77
2018-08-17T00:06:55.923Z,16.63
2018-08-17T00:08:58.229Z,15.10
2018-08-17T00:11:00.370Z,17.07
2018-08-17T00:13:02.726Z,16.30
2018-08-17T00:15:05.080Z,15.40
2018-08-17T00:17:07.242Z,18.47
2018-08-17T00:19:09.374Z,16.10
2018-08-17T00:21:11.602Z,17.37
2018-08-17T00:23:13.746Z,14.80
2018-08-17T00:25:16.082Z,16.10
2018-08-17T00:27:18.282Z,16.20
2018-08-17T00:29:20.440Z,16.50
2018-08-17T00:31:22.646Z,17.30
2018-08-17T00:33:24.827Z,15.57
2018-08-17T00:35:27.030Z,15.27
2018-08-17T00:37:29.286Z,16.83
2018-08-17T00:39:31.464Z,18.63
2018-08-17T00:41:33.667Z,19.57
2018-08-17T00:43:35.860Z,14.53
2018-08-17T00:45:38.285Z,15.67
2018-08-17T00:47:40.451Z,17.10
2018-08-17T00:49:42.613Z,16.53
2018-08-17T00:51:44.830Z,14.00
2018-08-17T00:53:46.995Z,15.97
2018-08-17T00:55:49.142Z,17.00
2018-08-17T00:57:51.570Z,18.63
2018-08-17T00:59:53.938Z,15.43
2018-08-17T01:01:56.129Z,15.90
2018-08-17T01:03:58.300Z,18.70
2018-08-17T01:06:00.560Z,14.90
2018-08-17T01:08:02.738Z,16.80
2018-08-17T01:10:05.175Z,16.03
2018-08-17T01:12:07.634Z,16.10
2018-08-17T01:14:09.765Z,15.97
2018-08-17T01:16:11.951Z,15.57
2018-08-17T01:18:20.710Z,17.20
2018-08-17T01:20:22.890Z,14.90
2018-08-17T01:22:25.096Z,14.67
2018-08-17T01:24:27.273Z,17.00
2018-08-17T01:26:29.427Z,15.60
2018-08-17T01:28:31.605Z,17.30
2018-08-17T01:30:33.847Z,18.90
2018-08-17T01:32:36.082Z,18.17
2018-08-17T01:34:38.325Z,17.60
2018-08-17T01:36:40.483Z,15.43
2018-08-17T01:38:42.637Z,16.43
2018-08-17T01:40:44.798Z,15.77
2018-08-17T01:42:47.122Z,15.73
2018-08-17T01:44:49.254Z,16.63
2018-08-17T01:46:51.408Z,16.27
2018-08-17T01:48:53.865Z,16.40
2018-08-17T01:50:56.018Z,16.03
2018-08-17T01:52:58.201Z,16.17
2018-08-17T01:55:00.402Z,16.47
2018-08-17T01:57:02.595Z,15.33
2018-08-17T01:59:04.761Z,16.80
2018-08-17T02:01:07.017Z,15.90
2018-08-17T02:03:09.196Z,16.83
2018-08-17T02:05:11.403Z,18.20
2018-08-17T02:07:13.610Z,20.87
2018-08-17T02:09:15.796Z,16.90
2018-08-17T02:11:17.975Z,16.80
2018-08-17T02:13:20.123Z,17.27
2018-08-17T02:15:22.277Z,15.60
2018-08-17T02:17:24.446Z,17.93
2018-08-17T02:19:26.622Z,16.63
2018-08-17T02:21:29.003Z,17.10
2018-08-17T02:23:31.184Z,18.13
2018-08-17T02:25:33.531Z,17.77
2018-08-17T02:27:35.728Z,16.70
2018-08-17T02:29:37.931Z,16.80
2018-08-17T02:31:40.258Z,18.20
2018-08-17T02:33:42.441Z,16.60
2018-08-17T02:35:44.649Z,19.90
2018-08-17T02:37:46.837Z,22.40
2018-08-17T02:39:49.019Z,19.87
2018-08-17T02:41:51.174Z,17.43
2018-08-17T02:43:53.320Z,16.83
2018-08-17T02:45:55.497Z,15.50
2018-08-17T02:47:57.658Z,16.80
2018-08-17T02:49:59.880Z,16.83
2018-08-17T02:52:02.091Z,18.20
2018-08-17T02:54:04.649Z,18.33
2018-08-17T02:56:06.904Z,19.07
2018-08-17T02:58:09.037Z,22.60
2018-08-17T03:00:11.213Z,19.30
2018-08-17T03:02:13.363Z,17.80
2018-08-17T03:04:15.530Z,18.90
2018-08-17T03:06:17.709Z,20.37
2018-08-17T03:08:19.896Z,18.60
2018-08-17T03:10:22.056Z,18.60
2018-08-17T03:12:24.194Z,18.87
2018-08-17T03:14:26.338Z,18.10
2018-08-17T03:16:28.474Z,19.40
2018-08-17T03:18:30.673Z,18.10
2018-08-17T03:20:32.836Z,18.73
2018-08-17T03:22:35.091Z,18.93
2018-08-17T03:24:37.238Z,19.33
2018-08-17T03:26:39.375Z,19.13
2018-08-17T03:28:41.545Z,24.73
2018-08-17T03:30:43.709Z,27.07
2018-08-17T03:32:46.266Z,19.03
2018-08-17T03:34:48.425Z,19.23
2018-08-17T03:36:50.598Z,23.10
2018-08-17T03:38:52.781Z,34.77
2018-08-17T03:40:54.944Z,36.23
2018-08-17T03:42:57.131Z,26.93
2018-08-17T03:44:59.318Z,24.43
2018-08-17T03:47:01.568Z,26.30
2018-08-17T03:49:04.298Z,25.07
2018-08-17T03:51:06.460Z,22.93
2018-08-17T03:53:08.628Z,26.10
2018-08-17T03:55:10.811Z,22.17
2018-08-17T03:57:12.974Z,21.70
2018-08-17T03:59:15.130Z,22.67
2018-08-17T04:01:17.296Z,23.87
2018-08-17T04:03:19.476Z,20.63
2018-08-17T04:05:21.656Z,20.03
2018-08-17T04:07:23.958Z,17.60
2018-08-17T04:09:26.122Z,20.53
2018-08-17T04:11:28.292Z,20.53
2018-08-17T04:13:30.455Z,21.00
2018-08-17T04:15:32.671Z,22.60
2018-08-17T04:17:34.886Z,23.20
2018-08-17T04:19:37.060Z,21.30
2018-08-17T04:21:39.262Z,23.37
2018-08-17T04:23:41.463Z,21.73
2018-08-17T04:25:43.654Z,22.57
2018-08-17T04:27:45.839Z,20.80
2018-08-17T04:29:48.059Z,21.10
2018-08-17T04:31:50.263Z,21.70
2018-08-17T04:33:52.406Z,27.87
2018-08-17T04:35:54.560Z,28.63
2018-08-17T04:37:56.923Z,25.83
2018-08-17T04:39:59.093Z,29.53
2018-08-17T04:42:01.271Z,36.40
2018-08-17T04:44:03.728Z,33.50
2018-08-17T04:46:05.991Z,17.10
2018-08-17T04:48:08.195Z,22.17
2018-08-17T04:50:10.383Z,18.67
2018-08-17T04:52:12.666Z,16.53
2018-08-17T04:54:14.840Z,17.87
2018-08-17T04:56:17.100Z,16.23
2018-08-17T04:58:19.250Z,17.70
2018-08-17T05:00:22.102Z,18.10
2018-08-17T05:02:24.296Z,18.27
2018-08-17T05:04:26.505Z,22.50
2018-08-17T05:06:29.245Z,23.67
2018-08-17T05:08:31.452Z,19.77
2018-08-17T05:10:33.664Z,22.07
2018-08-17T05:12:37.353Z,19.63
2018-08-17T05:14:42.297Z,17.50
2018-08-17T05:16:44.509Z,22.47
2018-08-17T05:18:46.747Z,22.77
2018-08-17T05:20:48.925Z,21.53
2018-08-17T05:22:51.335Z,24.87
2018-08-17T05:24:53.478Z,24.87
2018-08-17T05:26:55.805Z,23.47
2018-08-17T05:28:58.100Z,22.20
2018-08-17T05:31:00.485Z,22.50
2018-08-17T05:33:02.667Z,21.57
2018-08-17T05:35:04.891Z,19.13
2018-08-17T05:37:07.106Z,20.63
2018-08-17T05:39:09.734Z,22.50
2018-08-17T05:41:11.883Z,21.73
2018-08-17T05:43:14.037Z,23.70
2018-08-17T05:45:16.195Z,19.90
2018-08-17T05:47:18.362Z,20.03
2018-08-17T05:49:20.574Z,21.67
2018-08-17T05:51:22.739Z,25.70
2018-08-17T05:53:24.897Z,25.23
2018-08-17T05:55:27.253Z,25.00
2018-08-17T05:57:29.426Z,25.00
2018-08-17T05:59:31.776Z,20.60
2018-08-17T06:01:33.957Z,23.03
2018-08-17T06:03:36.117Z,22.27
2018-08-17T06:05:38.291Z,21.60
2018-08-17T06:07:40.553Z,23.50
2018-08-17T06:09:42.750Z,26.90
2018-08-17T06:11:44.961Z,24.10
2018-08-17T06:13:47.086Z,23.03
2018-08-17T06:15:49.249Z,22.70
2018-08-17T06:17:51.705Z,23.93
2018-08-17T06:19:54.003Z,25.73
2018-08-17T06:21:56.168Z,27.03
2018-08-17T06:23:58.750Z,23.83
2018-08-17T06:26:01.482Z,26.47
2018-08-17T06:30:13.419Z,27.43
2018-08-17T06:32:15.583Z,31.83
2018-08-17T06:34:17.754Z,32.20
2018-08-17T06:36:19.957Z,39.93
2018-08-17T06:38:22.154Z,29.10
2018-08-17T06:40:24.278Z,33.57
2018-08-17T06:42:26.592Z,30.63
2018-08-17T06:44:28.756Z,29.63
2018-08-17T06:46:31.014Z,25.17
2018-08-17T06:48:33.279Z,27.10
2018-08-17T06:50:35.557Z,27.20
2018-08-17T06:52:40.071Z,32.93
2018-08-17T06:54:42.885Z,29.30
2018-08-17T06:56:50.690Z,23.90
2018-08-17T06:58:53.508Z,23.93
2018-08-17T07:00:56.851Z,26.13
2018-08-17T07:03:01.812Z,25.17
2018-08-17T07:05:05.779Z,29.97
2018-08-17T07:07:09.316Z,27.00
2018-08-17T07:09:12.294Z,24.40
2018-08-17T07:11:14.987Z,22.43
2018-08-17T07:13:18.295Z,19.33
2018-08-17T07:15:21.505Z,19.10
2018-08-17T07:17:24.503Z,21.90
2018-08-17T07:19:27.234Z,16.37
2018-08-17T07:21:30.514Z,17.03
2018-08-17T07:23:33.209Z,18.63
2018-08-17T07:25:35.953Z,16.37
2018-08-17T07:27:38.909Z,13.60
2018-08-17T07:29:43.023Z,17.70
2018-08-17T07:31:46.583Z,16.10
2018-08-17T07:33:50.321Z,18.00
2018-08-17T07:35:53.178Z,14.43
2018-08-17T07:37:55.753Z,14.73
2018-08-17T07:39:58.935Z,14.57
2018-08-17T07:42:02.908Z,14.20
2018-08-17T07:44:06.545Z,12.50
2018-08-17T07:46:11.926Z,14.77
2018-08-17T07:48:14.813Z,13.53
2018-08-17T07:50:20.050Z,15.47
2018-08-17T07:52:24.269Z,16.10
2018-08-17T07:54:28.392Z,16.13
2018-08-17T07:56:31.081Z,18.67
2018-08-17T07:58:33.988Z,14.73
2018-08-17T08:00:37.706Z,14.00
2018-08-17T08:02:39.925Z,14.93
2018-08-17T08:04:42.082Z,14.70
2018-08-17T08:06:44.262Z,34.93
2018-08-17T08:08:46.414Z,18.20
2018-08-17T08:10:48.588Z,17.70
2018-08-17T08:12:50.754Z,14.93
2018-08-17T08:14:52.941Z,11.60
2018-08-17T08:16:55.427Z,12.60
2018-08-17T08:18:57.688Z,14.27
2018-08-17T08:20:59.842Z,13.07
2018-08-17T08:23:13.839Z,11.70
2018-08-17T08:25:15.993Z,9.63
2018-08-17T08:27:18.134Z,8.10
2018-08-17T08:29:20.272Z,8.10
2018-08-17T08:31:22.474Z,7.27
2018-08-17T08:33:24.650Z,7.80
2018-08-17T08:35:26.818Z,7.90
2018-08-17T08:37:28.953Z,6.30
2018-08-17T08:39:31.206Z,5.70
2018-08-17T08:41:33.346Z,6.20
2018-08-17T08:43:35.458Z,8.80
2018-08-17T08:45:37.688Z,5.93
2018-08-17T08:47:40.498Z,6.17
2018-08-17T08:49:42.635Z,7.67
2018-08-17T08:51:44.872Z,5.60
2018-08-17T08:53:47.074Z,5.80
2018-08-17T08:55:49.202Z,6.43
2018-08-17T08:57:51.548Z,5.67
2018-08-17T08:59:53.698Z,5.50
2018-08-17T09:01:55.861Z,7.07
2018-08-17T09:03:58.047Z,6.77
2018-08-17T09:06:00.255Z,9.53
2018-08-17T09:08:02.411Z,6.40
2018-08-17T09:10:05.856Z,7.00
2018-08-17T09:12:08.106Z,8.50
2018-08-17T09:14:10.321Z,11.20
2018-08-17T09:16:12.479Z,7.03
2018-08-17T09:18:14.626Z,6.50
2018-08-17T09:20:16.879Z,6.60
2018-08-17T09:22:18.979Z,7.03
2018-08-17T09:24:21.118Z,6.50
2018-08-17T09:26:23.279Z,6.20
2018-08-17T09:28:25.422Z,6.20
2018-08-17T09:30:27.542Z,5.13
2018-08-17T09:32:29.733Z,4.33
2018-08-17T09:34:31.853Z,4.60
2018-08-17T09:36:34.616Z,5.40
2018-08-17T09:38:36.765Z,5.27
2018-08-17T09:40:38.922Z,4.53
2018-08-17T09:42:41.079Z,4.10
2018-08-17T09:44:43.838Z,6.40
2018-08-17T09:46:46.030Z,4.10
2018-08-17T09:48:48.202Z,4.27
2018-08-17T09:50:50.348Z,4.83
2018-08-17T09:52:52.515Z,4.87
2018-08-17T09:54:54.694Z,5.00
2018-08-17T09:56:56.842Z,4.53
2018-08-17T09:58:59.075Z,4.60
2018-08-17T10:01:06.949Z,5.30
2018-08-17T10:03:14.673Z,5.10
2018-08-17T10:05:22.557Z,5.27
2018-08-17T10:07:30.626Z,5.70
2018-08-17T10:09:38.417Z,4.83
2018-08-17T10:11:40.647Z,6.53
2018-08-17T10:13:42.808Z,4.80
2018-08-17T10:15:45.802Z,7.70
2018-08-17T10:17:47.894Z,4.90
2018-08-17T10:19:50.121Z,5.30
2018-08-17T10:21:54.504Z,6.67
2018-08-17T10:23:56.654Z,4.90
2018-08-17T10:25:58.798Z,4.00
2018-08-17T10:28:00.922Z,4.13
2018-08-17T10:30:03.314Z,4.30
2018-08-17T10:32:05.479Z,5.03
2018-08-17T10:34:07.808Z,5.83
2018-08-17T10:36:09.846Z,4.87
2018-08-17T10:38:12.011Z,4.53
2018-08-17T10:40:14.173Z,4.60
2018-08-17T10:42:16.350Z,5.17
2018-08-17T10:44:18.474Z,5.20
2018-08-17T10:46:20.661Z,5.03
2018-08-17T10:48:22.822Z,5.47
2018-08-17T10:50:27.117Z,5.47
2018-08-17T10:52:29.250Z,5.63
2018-08-17T10:54:31.379Z,6.87
2018-08-17T10:56:33.664Z,6.37
2018-08-17T10:58:35.805Z,5.77
2018-08-17T11:00:37.920Z,5.33
2018-08-17T11:02:40.682Z,6.33
2018-08-17T11:04:43.264Z,6.07
2018-08-17T11:06:45.387Z,6.70
2018-08-17T11:08:47.544Z,4.90
2018-08-17T11:10:49.732Z,5.30
2018-08-17T11:12:51.858Z,5.87
2018-08-17T11:14:53.993Z,6.30
2018-08-17T11:16:56.236Z,8.13
2018-08-17T11:18:59.486Z,6.20
2018-08-17T11:21:01.633Z,5.70
2018-08-17T11:23:03.854Z,5.20
2018-08-17T11:25:06.938Z,7.90
2018-08-17T11:27:09.175Z,5.30
2018-08-17T11:29:11.350Z,5.93
2018-08-17T11:31:13.554Z,5.47
2018-08-17T11:33:15.734Z,6.33
2018-08-17T11:35:18.405Z,5.90
2018-08-17T11:37:21.125Z,5.83
2018-08-17T11:39:30.022Z,7.50
2018-08-17T11:41:32.226Z,10.63
2018-08-17T11:43:34.315Z,8.33
2018-08-17T11:45:38.226Z,6.03
2018-08-17T11:47:41.330Z,6.87
2018-08-17T11:49:43.490Z,5.27
2018-08-17T11:51:45.625Z,9.40
2018-08-17T11:53:48.299Z,8.87
2018-08-17T11:55:50.423Z,7.40
2018-08-17T11:57:52.680Z,12.63
2018-08-17T11:59:57.925Z,11.57
2018-08-17T12:02:00.147Z,9.57
2018-08-17T12:04:02.971Z,7.20
2018-08-17T12:06:05.586Z,6.20
2018-08-17T12:08:07.832Z,6.27
2018-08-17T12:10:10.018Z,7.53
2018-08-17T12:12:12.146Z,6.00
2018-08-17T12:14:14.291Z,7.07
2018-08-17T12:16:16.462Z,6.80
2018-08-17T12:18:18.954Z,6.80
2018-08-17T12:20:21.347Z,4.87
2018-08-17T12:22:23.493Z,5.13
2018-08-17T12:24:25.696Z,5.90
2018-08-17T12:26:28.003Z,6.27
2018-08-17T12:28:30.719Z,6.67
2018-08-17T12:30:33.219Z,5.37
2018-08-17T12:32:35.358Z,11.27
2018-08-17T12:34:37.699Z,7.00
2018-08-17T12:36:39.863Z,6.13
2018-08-17T12:38:43.172Z,7.30
2018-08-17T12:40:47.053Z,5.50
2018-08-17T12:42:49.288Z,5.73
2018-08-17T12:44:51.505Z,5.63
2018-08-17T12:46:53.650Z,5.97
2018-08-17T12:48:55.810Z,6.10
2018-08-17T12:51:03.314Z,5.47
2018-08-17T12:53:05.505Z,5.80
2018-08-17T12:55:07.818Z,6.40
2018-08-17T12:57:09.948Z,6.17
2018-08-17T12:59:12.377Z,5.87
2018-08-17T13:01:19.606Z,6.53
2018-08-17T13:03:21.763Z,6.30
2018-08-17T13:05:24.115Z,7.17
2018-08-17T13:07:26.254Z,6.37
2018-08-17T13:09:28.444Z,7.83
2018-08-17T13:11:30.633Z,6.47
2018-08-17T13:13:32.767Z,7.83
2018-08-17T13:15:35.416Z,7.80
2018-08-17T13:17:43.373Z,8.83
2018-08-17T13:19:45.531Z,8.53
2018-08-17T13:21:47.702Z,8.60
2018-08-17T13:23:49.831Z,9.20
2018-08-17T13:25:52.042Z,9.03
2018-08-17T13:27:54.179Z,8.53
2018-08-17T13:29:56.336Z,9.30
2018-08-17T13:31:58.711Z,9.97
2018-08-17T13:34:00.857Z,9.83
2018-08-17T13:36:03.012Z,9.57
2018-08-17T13:38:05.557Z,10.50
2018-08-17T13:40:08.538Z,8.93
2018-08-17T13:42:10.772Z,10.60
2018-08-17T13:44:12.906Z,11.43
2018-08-17T13:46:15.226Z,9.90
2018-08-17T13:48:17.349Z,10.60
2018-08-17T13:50:19.558Z,10.90
2018-08-17T13:52:21.706Z,11.90
2018-08-17T13:54:23.863Z,10.90
2018-08-17T13:56:25.954Z,11.83
2018-08-17T13:58:28.190Z,10.67
2018-08-17T14:00:30.376Z,11.70
2018-08-17T14:02:32.532Z,11.60
2018-08-17T14:04:34.836Z,10.30
2018-08-17T14:06:36.999Z,9.47
2018-08-17T14:08:39.139Z,11.27
2018-08-17T14:10:41.317Z,11.60
2018-08-17T14:12:43.790Z,14.53
2018-08-17T14:14:45.934Z,11.87
2018-08-17T14:16:48.115Z,11.37
2018-08-17T14:18:50.287Z,11.23
2018-08-17T14:20:52.446Z,10.43
2018-08-17T14:22:55.775Z,14.63
2018-08-17T14:24:58.025Z,10.57
2018-08-17T14:27:00.956Z,10.83
2018-08-17T14:29:03.194Z,10.97
2018-08-17T14:31:05.430Z,9.70
2018-08-17T14:33:07.558Z,10.40
2018-08-17T14:35:16.548Z,11.17
2018-08-17T14:39:27.478Z,10.80
2018-08-17T14:41:29.597Z,11.10
2018-08-17T14:43:32.193Z,11.20
2018-08-17T14:45:34.417Z,11.00
2018-08-17T14:47:37.018Z,11.27
2018-08-17T14:49:39.264Z,11.33
2018-08-17T14:51:41.468Z,14.10
2018-08-17T14:53:43.648Z,10.40
2018-08-17T14:55:45.825Z,12.00
2018-08-17T14:57:48.050Z,11.20
2018-08-17T14:59:50.382Z,9.90
2018-08-17T15:01:52.533Z,8.00
2018-08-17T15:03:54.666Z,8.17
2018-08-17T15:05:56.842Z,7.00
2018-08-17T15:07:59.030Z,6.50
2018-08-17T15:10:01.172Z,8.50
2018-08-17T15:12:03.342Z,7.83
2018-08-17T15:14:05.674Z,8.17
2018-08-17T15:16:07.825Z,10.07
2018-08-17T15:18:09.986Z,7.50
2018-08-17T15:20:12.566Z,7.03
2018-08-17T15:22:14.751Z,8.03
2018-08-17T15:24:16.884Z,11.07
2018-08-17T15:26:19.040Z,9.93
2018-08-17T15:28:21.177Z,9.10
2018-08-17T15:30:23.726Z,6.10
2018-08-17T15:32:26.006Z,14.00
2018-08-17T15:34:28.154Z,11.20
2018-08-17T15:36:30.321Z,6.93
2018-08-17T15:38:32.545Z,5.93
2018-08-17T15:40:34.822Z,7.53
2018-08-17T15:42:37.027Z,7.90
2018-08-17T15:44:39.243Z,8.07
2018-08-17T15:46:41.585Z,12.07
2018-08-17T15:48:49.710Z,13.10
2018-08-17T15:50:52.005Z,6.80
2018-08-17T15:52:54.182Z,5.97
2018-08-17T15:54:56.334Z,5.10
2018-08-17T15:56:58.866Z,10.47
2018-08-17T15:59:01.075Z,10.50
2018-08-17T16:01:03.508Z,9.10
2018-08-17T16:03:05.730Z,7.50
2018-08-17T16:05:07.883Z,6.80
2018-08-17T16:07:10.035Z,6.83
2018-08-17T16:09:13.112Z,7.47
2018-08-17T16:11:15.490Z,8.00
2018-08-17T16:13:17.753Z,6.83
2018-08-17T16:15:19.918Z,7.30
2018-08-17T16:17:22.150Z,10.37
2018-08-17T16:19:24.307Z,6.70
2018-08-17T16:21:26.542Z,7.97
2018-08-17T16:23:28.742Z,6.50
2018-08-17T16:25:30.925Z,5.97
2018-08-17T16:27:33.130Z,8.93
2018-08-17T16:29:35.337Z,10.23
2018-08-17T16:31:41.697Z,5.50
2018-08-17T16:33:43.878Z,8.00
2018-08-17T16:35:46.067Z,5.93
2018-08-17T16:37:48.266Z,9.33
2018-08-17T16:39:54.378Z,7.27
2018-08-17T16:41:56.787Z,9.03
2018-08-17T16:43:59.084Z,6.80
2018-08-17T16:46:01.314Z,7.50
2018-08-17T16:48:03.794Z,6.40
2018-08-17T16:50:07.122Z,8.93
2018-08-17T16:52:09.422Z,8.90
2018-08-17T16:54:11.753Z,7.70
2018-08-17T16:56:14.228Z,6.20
2018-08-17T16:58:16.741Z,7.37
2018-08-17T17:00:18.924Z,10.43
2018-08-17T17:02:21.115Z,6.33
2018-08-17T17:04:23.292Z,6.20
2018-08-17T17:06:25.495Z,6.37
2018-08-17T17:08:27.812Z,7.20
2018-08-17T17:10:30.688Z,8.60
2018-08-17T17:12:32.860Z,6.93
2018-08-17T17:14:35.030Z,6.27
2018-08-17T17:16:42.910Z,7.00
2018-08-17T17:18:45.074Z,5.23
2018-08-17T17:20:47.309Z,7.23
2018-08-17T17:22:49.415Z,5.17
2018-08-17T17:24:51.615Z,8.70
2018-08-17T17:26:53.844Z,6.93
2018-08-17T17:28:56.002Z,5.97
2018-08-17T17:30:58.413Z,4.93
2018-08-17T17:33:00.572Z,6.60
2018-08-17T17:35:03.095Z,4.83
2018-08-17T17:37:05.232Z,3.33
2018-08-17T17:39:10.590Z,6.43
2018-08-17T17:41:12.870Z,5.43
2018-08-17T17:43:15.038Z,4.60
2018-08-17T17:45:17.201Z,8.30
2018-08-17T17:47:19.511Z,6.80
2018-08-17T17:49:21.590Z,10.80
2018-08-17T17:51:23.777Z,24.77
2018-08-17T17:53:25.950Z,8.03
2018-08-17T17:55:41.081Z,5.07
2018-08-17T17:57:47.875Z,5.33
2018-08-17T17:59:56.649Z,5.03
2018-08-17T18:01:58.830Z,6.27
2018-08-17T18:04:00.979Z,6.40
2018-08-17T18:06:05.292Z,5.50
2018-08-17T18:08:13.006Z,4.93
2018-08-17T18:10:16.307Z,4.60
2018-08-17T18:12:18.501Z,5.00
2018-08-17T18:14:20.659Z,5.10
2018-08-17T18:16:22.838Z,9.87
2018-08-17T18:18:25.112Z,6.70
2018-08-17T18:20:27.324Z,5.00
2018-08-17T18:22:30.441Z,4.63
2018-08-17T18:24:32.577Z,4.00
2018-08-17T18:26:34.854Z,4.27
2018-08-17T18:28:37.172Z,5.87
2018-08-17T18:30:39.811Z,5.67
2018-08-17T18:32:42.106Z,6.53
2018-08-17T18:34:44.371Z,6.77
2018-08-17T18:36:46.613Z,5.27
2018-08-17T18:38:48.903Z,3.47
2018-08-17T18:40:51.139Z,4.60
2018-08-17T18:42:53.370Z,7.13
2018-08-17T18:44:55.747Z,4.53
2018-08-17T18:46:58.156Z,5.57
2018-08-17T18:49:00.413Z,4.23
2018-08-17T18:51:02.688Z,6.97
2018-08-17T18:53:04.861Z,37.43
2018-08-17T18:55:07.011Z,7.30
2018-08-17T18:57:09.195Z,8.13
2018-08-17T18:59:11.436Z,15.93
2018-08-17T19:01:13.589Z,4.40
2018-08-17T19:03:15.770Z,5.93
2018-08-17T19:05:17.922Z,11.90
2018-08-17T19:07:20.711Z,6.87
2018-08-17T19:09:22.893Z,10.40
2018-08-17T19:11:25.066Z,4.77
2018-08-17T19:13:27.225Z,5.80
2018-08-17T19:15:33.114Z,7.17
2018-08-17T19:17:35.346Z,6.33
2018-08-17T19:19:38.900Z,7.70
2018-08-17T19:21:41.120Z,14.13
2018-08-17T19:23:43.264Z,8.40
2018-08-17T19:25:45.710Z,6.27
2018-08-17T19:27:47.834Z,11.00
2018-08-17T19:29:50.614Z,11.10
2018-08-17T19:31:58.470Z,7.10
2018-08-17T19:34:00.771Z,12.37
2018-08-17T19:36:03.525Z,11.07
2018-08-17T19:38:05.739Z,14.13
2018-08-17T19:40:07.997Z,13.03
2018-08-17T19:42:10.414Z,13.23
2018-08-17T19:44:12.596Z,15.00
2018-08-17T19:46:14.980Z,11.47
2018-08-17T19:48:17.031Z,9.33
2018-08-17T19:50:19.199Z,9.93
2018-08-17T19:52:21.320Z,9.23
2018-08-17T19:54:23.491Z,7.27
2018-08-17T19:58:34.531Z,9.60
2018-08-17T20:00:36.732Z,9.17
2018-08-17T20:02:38.929Z,8.07
2018-08-17T20:04:41.070Z,9.60
2018-08-17T20:06:43.722Z,9.70
2018-08-17T20:08:45.963Z,10.73
2018-08-17T20:10:48.143Z,10.17
2018-08-17T20:12:50.319Z,14.73
2018-08-17T20:14:52.474Z,13.33
2018-08-17T20:16:55.913Z,11.20
2018-08-17T20:18:59.166Z,8.80
2018-08-17T20:21:01.402Z,8.73
2018-08-17T20:23:03.583Z,9.00
2018-08-17T20:25:09.842Z,8.33
2018-08-17T20:27:12.831Z,15.30
2018-08-17T20:29:14.960Z,9.40
2018-08-17T20:31:18.656Z,9.23
2018-08-17T20:33:26.417Z,12.23
2018-08-17T20:35:28.600Z,11.97
2018-08-17T20:37:30.761Z,16.57
2018-08-17T20:39:36.470Z,13.60
2018-08-17T20:41:38.842Z,15.07
2018-08-17T20:43:41.335Z,13.33
2018-08-17T20:45:43.568Z,13.77
2018-08-17T20:47:45.895Z,13.87
2018-08-17T20:49:48.163Z,11.70
2018-08-17T20:51:55.955Z,14.93
2018-08-17T20:53:59.881Z,13.43
2018-08-17T20:56:02.217Z,13.77
2018-08-17T20:58:04.679Z,12.30
2018-08-17T21:00:06.842Z,16.40
2018-08-17T21:02:09.126Z,15.13
2018-08-17T21:04:11.288Z,15.83
2018-08-17T21:06:13.435Z,11.47
2018-08-17T21:08:15.616Z,14.13
2018-08-17T21:10:17.902Z,16.53
2018-08-17T21:12:20.103Z,12.90
2018-08-17T21:14:22.223Z,10.20
2018-08-17T21:16:24.697Z,9.93
2018-08-17T21:18:26.844Z,12.07
2018-08-17T21:20:28.985Z,9.13
2018-08-17T21:22:31.162Z,11.20
2018-08-17T21:24:33.277Z,12.53
2018-08-17T21:26:35.435Z,12.23
2018-08-17T21:28:37.577Z,12.80
2018-08-17T21:30:39.976Z,11.50
2018-08-17T21:32:42.213Z,10.07
2018-08-17T21:34:44.462Z,14.50
2018-08-17T21:36:46.619Z,12.83
2018-08-17T21:39:10.751Z,18.20
2018-08-17T21:41:12.931Z,13.63
2018-08-17T21:43:16.518Z,19.40
2018-08-17T21:45:18.737Z,15.80
2018-08-17T21:47:20.907Z,12.77
2018-08-17T21:49:24.286Z,12.37
2018-08-17T21:51:31.042Z,11.43
2018-08-17T21:53:33.889Z,12.20
2018-08-17T21:55:36.066Z,15.37
2018-08-17T21:57:38.234Z,17.00
2018-08-17T21:59:47.137Z,14.30
2018-08-17T22:01:49.584Z,15.10
2018-08-17T22:03:51.936Z,13.97
2018-08-17T22:05:54.080Z,16.40
2018-08-17T22:07:56.346Z,13.37
2018-08-17T22:09:58.499Z,14.77
2018-08-17T22:12:00.718Z,13.33
2018-08-17T22:14:03.155Z,13.37
2018-08-17T22:16:05.336Z,12.53
2018-08-17T22:18:07.526Z,14.33
2018-08-17T22:20:10.043Z,11.27
2018-08-17T22:22:12.498Z,10.63
2018-08-17T22:24:14.626Z,14.70
2018-08-17T22:26:17.285Z,13.70
2018-08-17T22:28:19.518Z,10.03
2018-08-17T22:30:23.797Z,11.50
2018-08-17T22:32:25.965Z,11.23
2018-08-17T22:34:28.113Z,18.90
2018-08-17T22:36:30.915Z,13.03
2018-08-17T22:38:37.997Z,11.23
2018-08-17T22:40:40.148Z,12.70
2018-08-17T22:42:43.754Z,9.30
2018-08-17T22:44:46.485Z,10.63
2018-08-17T22:46:58.862Z,10.63
2018-08-17T22:49:01.012Z,10.60
2018-08-17T22:51:03.243Z,11.40
2018-08-17T22:53:05.426Z,13.37
2018-08-17T22:55:08.349Z,9.53
2018-08-17T22:57:10.838Z,11.80
2018-08-17T22:59:13.039Z,10.00
2018-08-17T23:01:15.832Z,12.53
2018-08-17T23:03:17.992Z,13.40
2018-08-17T23:05:28.305Z,11.57
2018-08-17T23:07:30.484Z,12.93
2018-08-17T23:09:32.849Z,12.43
2018-08-17T23:11:36.617Z,9.23
2018-08-17T23:13:38.826Z,9.83
2018-08-17T23:15:41.026Z,10.23
2018-08-17T23:17:48.151Z,11.70
2018-08-17T23:19:50.317Z,8.73
2018-08-17T23:21:52.499Z,11.70
2018-08-17T23:23:54.702Z,27.00
2018-08-17T23:25:56.822Z,25.20
2018-08-17T23:27:59.060Z,12.73
2018-08-17T23:30:01.182Z,11.53
2018-08-17T23:32:03.453Z,14.13
2018-08-17T23:34:05.629Z,11.30
2018-08-17T23:36:07.813Z,13.50
2018-08-17T23:38:09.969Z,13.87
2018-08-17T23:40:12.212Z,13.57
2018-08-17T23:42:14.359Z,15.27
2018-08-17T23:44:16.503Z,11.53
2018-08-17T23:46:18.898Z,12.07
2018-08-17T23:48:21.118Z,11.80
2018-08-17T23:50:23.372Z,11.73
2018-08-17T23:52:25.572Z,9.60
2018-08-17T23:54:27.707Z,12.43
2018-08-17T23:56:29.925Z,17.37
2018-08-17T23:58:32.078Z,14.40
